Work to repair sites with problems is delayed by the pandemic. Thanks for your ongoing patience.
temperature
    1      6.70  2020 11 23 11 01   48.46990  236.68100     5
    3      7.80  2020 11 23 11 01   48.47760  236.58299     1
    4      6.80  2020 11 23 11 01   48.44080  236.66100     1
    5      7.40  2020 11 23 11 01   48.46600  236.66299     1
    6      7.70  2020 11 23 11 01   48.46160  236.59200     1
    7      6.70  2020 11 23 11 01   48.46550  236.67900     1
    9      6.80  2020 11 23 11 01   48.46510  236.70000     1
   11      7.10  2020 11 23 11 01   48.41690  236.62000     1
   12      7.70  2020 11 23 11 01   48.43460  236.61200     1
   13     10.20  2020 11 23 11 01   48.45330  236.57401     1
   14      6.80  2020 11 23 11 01   48.43590  236.68900     1
   16      7.70  2020 11 23 11 01   48.45190  236.60699     1
   17      7.60  2020 11 23 11 01   48.46630  236.55800     1
   18      6.80  2020 11 23 11 01   48.48650  236.67599     1
   19      7.60  2020 11 23 11 01   48.41820  236.68600     1
   20      7.40  2020 11 23 11 01   48.47880  236.63499     1
   21      7.40  2020 11 23 11 01   48.47440  236.61900     1
   22      7.10  2020 11 23 11 01   48.45340  236.64101     1
   24      6.70  2020 11 23 11 01   48.48490  236.68600     1
   25      6.90  2020 11 23 11 01   48.44510  236.67200     1
   26      6.80  2020 11 23 11 01   48.45620  236.66200     1
   29      7.50  2020 11 23 11 01   48.43290  236.64900     1
   32      7.20  2020 11 23 11 01   48.43560  236.51401     3
   34      7.40  2020 11 23 11 01   48.45290  236.52299     3
   37      6.80  2020 11 23 11 01   48.37100  236.25000     3
   39      7.30  2020 11 23 11 01   48.46550  236.49400     3
   40      7.30  2020 11 23 11 01   48.45150  236.49500     3
   41      7.40  2020 11 23 11 01   48.42810  236.63400     2
   42      6.60  2020 11 23 11 01   48.56210  236.53400     2
   43      7.50  2020 11 23 11 01   48.45220  236.73300     5
   55      7.30  2020 11 23 11 01   48.44880  236.51401     3
   56      7.80  2020 11 23 11 01   48.45720  236.45100     3
   57      6.40  2020 11 23 11 01   48.42180  236.50500     3
   59      7.10  2020 11 23 11 01   48.38740  236.28300     3
   60      8.30  2020 11 23 11 01   48.43820  236.60400     1
   61      6.90  2020 11 23 11 01   48.52730  236.63000     4
   64      7.30  2020 11 23 11 01   48.50140  236.63901     4
   66      7.80  2020 11 23 11 01   48.52340  236.56700     4
   67      6.70  2020 11 23 11 01   48.65290  236.59599     4
   68      7.00  2020 11 23 11 01   48.56970  236.54700     4
   71      5.90  2020 11 23 11 01   48.53760  236.49899    11
   72      7.60  2020 11 23 11 01   48.29838  236.46838     5
   73      7.70  2020 11 23 11 01   48.45370  236.57899     1
   74      6.80  2020 11 23 11 01   48.44560  236.63901     1
   77      7.20  2020 11 23 11 01   48.46690  236.60800     1
   79      6.70  2020 11 23 11 01   48.47130  236.69299     1
   80      6.60  2020 11 23 11 01   48.48210  236.67000     1
   89      7.10  2020 11 23 11 01   49.31120  235.67300    21
   90      8.20  2020 11 23 11 01   48.45710  236.56300     1
   93      6.50  2020 11 23 11 01   48.65380  236.37601    14
   95      7.30  2020 11 23 11 01   49.34850  235.59900    21
   96      6.40  2020 11 23 11 01   49.44590  235.30099    21
   98      8.50  2020 11 23 11 01   48.41610  236.67000     1
   99      6.90  2020 11 23 11 01   48.51100  236.53600    11
  100      5.90  2020 11 23 11 01   48.48110  236.48700    11
  101      5.30  2020 11 23 11 01   48.51010  236.47600    11
  104      6.80  2020 11 23 11 01   48.42810  236.47099     3
  105      5.60  2020 11 23 11 01   48.55650  235.60100     3
  107      7.90  2020 11 23 11 01   48.46610  236.50400     3
  110      7.70  2020 11 23 11 01   49.27380  235.80901    21
  112      6.20  2020 11 23 11 01   48.79430  236.82700    40
  114      6.40  2020 11 23 11 01   48.88560  236.66600    40
  114      6.40  2020 11 23 11 01   48.88560  236.66600    45
  115      7.50  2020 11 23 11 01   48.43210  236.59801     5
  119      6.70  2020 11 23 11 01   48.90720  236.46100    40
  121      6.60  2020 11 23 11 01   48.85540  236.49300    40
  122      6.40  2020 11 23 11 01   48.85030  236.49400    40
  125      7.70  2020 11 23 11 01   48.43350  236.67599     5
  126      7.30  2020 11 23 11 01   48.78590  236.30499    10
  132      5.10  2020 11 23 11 01   48.61540  236.36900    14
  133      7.30  2020 11 23 11 01   48.65230  236.34900    10
  134      7.30  2020 11 23 11 01   48.46480  236.62601     5
  139      6.40  2020 11 23 11 01   49.23280  236.03200    20
  143      7.70  2020 11 23 11 01   48.46230  236.69099     5
  162      8.10  2020 11 23 11 01   48.45240  236.67101     5
  163      6.60  2020 11 23 11 01   48.46480  236.68600     5
  165      6.10  2020 11 23 11 01   49.26100  235.19299    60
  166      5.50  2020 11 23 11 01   49.22710  235.20799    60
  169      6.80  2020 11 23 11 01   48.43780  236.46700     5
  174      6.20  2020 11 23 11 01   48.62580  236.57700     4
  176      7.00  2020 11 23 11 01   48.41800  236.68201     5
  177      5.80  2020 11 23 11 01   48.98460  236.17200    20
  179      4.80  2020 11 23 11 01   49.78270  233.94901    70
  181      6.50  2020 11 23 11 01   48.38970  236.47800     5
  182      6.80  2020 11 23 11 01   49.20990  236.04500    23
  184      5.60  2020 11 23 11 01   49.21830  235.19200    23
  188      6.90  2020 11 23 11 01   48.66570  236.58200     4
  189      7.10  2020 11 23 11 01   49.70950  235.08600    30
  190      7.70  2020 11 23 11 01   49.68220  235.00101    30
  192      7.10  2020 11 23 11 01   49.53550  235.18401    30
  194      7.00  2020 11 23 11 01   49.85610  234.88100    30
  197      5.40  2020 11 23 11 01   48.52190  236.58000     5
  199      7.00  2020 11 23 11 01   48.39510  236.69501     5
  200      6.70  2020 11 23 11 01   48.48800  236.67300     5
  205      6.90  2020 11 23 11 01   49.96700  234.78400    35
  207      6.90  2020 11 23 11 01   49.98010  234.75500    35
  210      6.70  2020 11 23 11 01   50.02080  234.75400    35
  211      5.70  2020 11 23 11 01   50.05990  235.01700    35
  212      6.30  2020 11 23 11 01   50.37740  234.04201    35
  213      6.50  2020 11 23 11 01   50.01380  234.75000    35
  215      7.20  2020 11 23 11 01   48.46180  236.59500     5
  216      5.60  2020 11 23 11 01   49.17440  237.15300    80
  217      7.80  2020 11 23 11 01   48.45190  236.70399     5
  218      7.70  2020 11 23 11 01   49.32200  235.65700    21
  227      7.00  2020 11 23 11 01   48.52524  236.61111     5
  234      5.70  2020 11 23 11 01   48.88760  236.62149    45
  235      6.20  2020 11 23 11 01   48.92833  236.53203    45
  238      6.30  2020 11 23 11 01   48.88512  236.64799    45
humidity
    1     92.00  2020 11 23 11 01   48.46990  236.68100     5
    3     97.00  2020 11 23 11 01   48.47760  236.58299     1
    4     88.00  2020 11 23 11 01   48.44080  236.66100     1
    5     88.00  2020 11 23 11 01   48.46600  236.66299     1
    6     90.00  2020 11 23 11 01   48.46160  236.59200     1
    7     94.00  2020 11 23 11 01   48.46550  236.67900     1
    9     93.00  2020 11 23 11 01   48.46510  236.70000     1
   11     87.00  2020 11 23 11 01   48.41690  236.62000     1
   12     97.00  2020 11 23 11 01   48.43460  236.61200     1
   13     98.00  2020 11 23 11 01   48.45330  236.57401     1
   14     88.00  2020 11 23 11 01   48.43590  236.68900     1
   16     94.00  2020 11 23 11 01   48.45190  236.60699     1
   17     98.00  2020 11 23 11 01   48.46630  236.55800     1
   18     90.00  2020 11 23 11 01   48.48650  236.67599     1
   19     89.00  2020 11 23 11 01   48.41820  236.68600     1
   20     90.00  2020 11 23 11 01   48.47880  236.63499     1
   21     90.00  2020 11 23 11 01   48.47440  236.61900     1
   22     94.00  2020 11 23 11 01   48.45340  236.64101     1
   25     93.00  2020 11 23 11 01   48.44510  236.67200     1
   26     94.00  2020 11 23 11 01   48.45620  236.66200     1
   29     94.00  2020 11 23 11 01   48.43290  236.64900     1
   31     39.00  2020 11 23 11 01   48.42050  236.51401     3
   34     94.00  2020 11 23 11 01   48.45290  236.52299     3
   37     95.00  2020 11 23 11 01   48.37100  236.25000     3
   39     92.00  2020 11 23 11 01   48.46550  236.49400     3
   40    100.00  2020 11 23 11 01   48.45150  236.49500     3
   41     84.00  2020 11 23 11 01   48.42810  236.63400     2
   42     97.00  2020 11 23 11 01   48.56210  236.53400     2
   43     92.00  2020 11 23 11 01   48.45220  236.73300     5
   56     92.00  2020 11 23 11 01   48.45720  236.45100     3
   57     95.00  2020 11 23 11 01   48.42180  236.50500     3
   59     92.00  2020 11 23 11 01   48.38740  236.28300     3
   64     96.00  2020 11 23 11 01   48.50140  236.63901     4
   66      0.00  2020 11 23 11 01   48.52340  236.56700     4
   67     95.00  2020 11 23 11 01   48.65290  236.59599     4
   68     93.00  2020 11 23 11 01   48.56970  236.54700     4
   72     35.00  2020 11 23 11 01   48.29838  236.46838     5
   73    100.00  2020 11 23 11 01   48.45370  236.57899     1
   74     90.00  2020 11 23 11 01   48.44560  236.63901     1
   77     82.00  2020 11 23 11 01   48.46690  236.60800     1
   79     94.00  2020 11 23 11 01   48.47130  236.69299     1
   80    100.00  2020 11 23 11 01   48.48210  236.67000     1
   89     78.00  2020 11 23 11 01   49.31120  235.67300    21
   90     95.00  2020 11 23 11 01   48.45710  236.56300     1
   93     94.00  2020 11 23 11 01   48.65380  236.37601    14
   95     93.00  2020 11 23 11 01   49.34850  235.59900    21
   96     88.00  2020 11 23 11 01   49.44590  235.30099    21
   98     87.00  2020 11 23 11 01   48.41610  236.67000     1
   99     96.00  2020 11 23 11 01   48.51100  236.53600    11
  100     98.00  2020 11 23 11 01   48.48110  236.48700    11
  101     96.00  2020 11 23 11 01   48.51010  236.47600    11
  104     95.00  2020 11 23 11 01   48.42810  236.47099     3
  105     99.00  2020 11 23 11 01   48.55650  235.60100     3
  107     88.00  2020 11 23 11 01   48.46610  236.50400     3
  112     97.00  2020 11 23 11 01   48.79430  236.82700    40
  114     96.00  2020 11 23 11 01   48.88560  236.66600    40
  114     96.00  2020 11 23 11 01   48.88560  236.66600    45
  121     97.00  2020 11 23 11 01   48.85540  236.49300    40
  122      0.00  2020 11 23 11 01   48.85030  236.49400    40
  125     89.00  2020 11 23 11 01   48.43350  236.67599     5
  126     94.00  2020 11 23 11 01   48.78590  236.30499    10
  132     92.00  2020 11 23 11 01   48.61540  236.36900    14
  133     94.00  2020 11 23 11 01   48.65230  236.34900    10
  134     98.00  2020 11 23 11 01   48.46480  236.62601     5
  139     93.00  2020 11 23 11 01   49.23280  236.03200    20
  143     85.00  2020 11 23 11 01   48.46230  236.69099     5
  162     94.00  2020 11 23 11 01   48.45240  236.67101     5
  163     94.00  2020 11 23 11 01   48.46480  236.68600     5
  165     95.00  2020 11 23 11 01   49.26100  235.19299    60
  166     93.00  2020 11 23 11 01   49.22710  235.20799    60
  174     95.00  2020 11 23 11 01   48.62580  236.57700     4
  176     91.00  2020 11 23 11 01   48.41800  236.68201     5
  181      0.00  2020 11 23 11 01   48.38970  236.47800     5
  182     93.00  2020 11 23 11 01   49.20990  236.04500    23
  184     95.00  2020 11 23 11 01   49.21830  235.19200    23
  188     90.00  2020 11 23 11 01   48.66570  236.58200     4
  189     43.00  2020 11 23 11 01   49.70950  235.08600    30
  190     82.00  2020 11 23 11 01   49.68220  235.00101    30
  192     86.00  2020 11 23 11 01   49.53550  235.18401    30
  194     84.00  2020 11 23 11 01   49.85610  234.88100    30
  197      0.00  2020 11 23 11 01   48.52190  236.58000     5
  199     81.00  2020 11 23 11 01   48.39510  236.69501     5
  200     93.00  2020 11 23 11 01   48.48800  236.67300     5
  205     84.00  2020 11 23 11 01   49.96700  234.78400    35
  207     83.00  2020 11 23 11 01   49.98010  234.75500    35
  210     90.00  2020 11 23 11 01   50.02080  234.75400    35
  211      4.00  2020 11 23 11 01   50.05990  235.01700    35
  212     95.00  2020 11 23 11 01   50.37740  234.04201    35
  213     88.00  2020 11 23 11 01   50.01380  234.75000    35
  215     92.00  2020 11 23 11 01   48.46180  236.59500     5
  216     96.00  2020 11 23 11 01   49.17440  237.15300    80
  217     91.00  2020 11 23 11 01   48.45190  236.70399     5
  218     89.00  2020 11 23 11 01   49.32200  235.65700    21
  227     94.00  2020 11 23 11 01   48.52524  236.61111     5
  234      1.00  2020 11 23 11 01   48.88760  236.62149    45
  235     83.00  2020 11 23 11 01   48.92833  236.53203    45
  238      1.00  2020 11 23 11 01   48.88512  236.64799    45
wind
    1      0.00  2020 11 23 11 01   48.46990  236.68100     5
    3      0.00  2020 11 23 11 01   48.47760  236.58299     1
    4      0.40  2020 11 23 11 01   48.44080  236.66100     1
    5      0.30  2020 11 23 11 01   48.46600  236.66299     1
    6      1.30  2020 11 23 11 01   48.46160  236.59200     1
    7      0.00  2020 11 23 11 01   48.46550  236.67900     1
    9      0.00  2020 11 23 11 01   48.46510  236.70000     1
   11      0.00  2020 11 23 11 01   48.41690  236.62000     1
   12      0.00  2020 11 23 11 01   48.43460  236.61200     1
   13      0.00  2020 11 23 11 01   48.45330  236.57401     1
   14      0.00  2020 11 23 11 01   48.43590  236.68900     1
   16      0.00  2020 11 23 11 01   48.45190  236.60699     1
   17      2.50  2020 11 23 11 01   48.46630  236.55800     1
   18      0.00  2020 11 23 11 01   48.48650  236.67599     1
   19      0.00  2020 11 23 11 01   48.41820  236.68600     1
   20      0.00  2020 11 23 11 01   48.47880  236.63499     1
   21      0.00  2020 11 23 11 01   48.47440  236.61900     1
   22      0.80  2020 11 23 11 01   48.45340  236.64101     1
   24      0.60  2020 11 23 11 01   48.48490  236.68600     1
   25      0.00  2020 11 23 11 01   48.44510  236.67200     1
   26      0.00  2020 11 23 11 01   48.45620  236.66200     1
   29      0.00  2020 11 23 11 01   48.43290  236.64900     1
   31      0.10  2020 11 23 11 01   48.42050  236.51401     3
   34      0.90  2020 11 23 11 01   48.45290  236.52299     3
   37      0.00  2020 11 23 11 01   48.37100  236.25000     3
   39      0.10  2020 11 23 11 01   48.46550  236.49400     3
   40      0.80  2020 11 23 11 01   48.45150  236.49500     3
   41      0.10  2020 11 23 11 01   48.42810  236.63400     2
   42      0.00  2020 11 23 11 01   48.56210  236.53400     2
   43      0.70  2020 11 23 11 01   48.45220  236.73300     5
   55      0.50  2020 11 23 11 01   48.44880  236.51401     3
   56      0.00  2020 11 23 11 01   48.45720  236.45100     3
   57      1.90  2020 11 23 11 01   48.42180  236.50500     3
   59      0.00  2020 11 23 11 01   48.38740  236.28300     3
   60      0.80  2020 11 23 11 01   48.43820  236.60400     1
   61      0.00  2020 11 23 11 01   48.52730  236.63000     4
   64      0.00  2020 11 23 11 01   48.50140  236.63901     4
   66      0.20  2020 11 23 11 01   48.52340  236.56700     4
   67      1.20  2020 11 23 11 01   48.65290  236.59599     4
   68      0.00  2020 11 23 11 01   48.56970  236.54700     4
   71      0.20  2020 11 23 11 01   48.53760  236.49899    11
   72      2.30  2020 11 23 11 01   48.29838  236.46838     5
   73      0.10  2020 11 23 11 01   48.45370  236.57899     1
   74      0.00  2020 11 23 11 01   48.44560  236.63901     1
   77      0.00  2020 11 23 11 01   48.46690  236.60800     1
   79      0.20  2020 11 23 11 01   48.47130  236.69299     1
   80      0.00  2020 11 23 11 01   48.48210  236.67000     1
   89      0.80  2020 11 23 11 01   49.31120  235.67300    21
   90      0.00  2020 11 23 11 01   48.45710  236.56300     1
   93      0.00  2020 11 23 11 01   48.65380  236.37601    14
   95      0.00  2020 11 23 11 01   49.34850  235.59900    21
   96      0.00  2020 11 23 11 01   49.44590  235.30099    21
   98      0.00  2020 11 23 11 01   48.41610  236.67000     1
   99      0.00  2020 11 23 11 01   48.51100  236.53600    11
  100      0.00  2020 11 23 11 01   48.48110  236.48700    11
  101      0.00  2020 11 23 11 01   48.51010  236.47600    11
  104      0.00  2020 11 23 11 01   48.42810  236.47099     3
  105      0.00  2020 11 23 11 01   48.55650  235.60100     3
  110      0.00  2020 11 23 11 01   49.27380  235.80901    21
  112      0.00  2020 11 23 11 01   48.79430  236.82700    40
  114      0.00  2020 11 23 11 01   48.88560  236.66600    45
  114      0.00  2020 11 23 11 01   48.88560  236.66600    40
  115      0.00  2020 11 23 11 01   48.43210  236.59801     5
  119      0.50  2020 11 23 11 01   48.90720  236.46100    40
  121      0.40  2020 11 23 11 01   48.85540  236.49300    40
  122      0.00  2020 11 23 11 01   48.85030  236.49400    40
  125      0.00  2020 11 23 11 01   48.43350  236.67599     5
  126      0.50  2020 11 23 11 01   48.78590  236.30499    10
  132      0.00  2020 11 23 11 01   48.61540  236.36900    14
  133      0.00  2020 11 23 11 01   48.65230  236.34900    10
  139      0.00  2020 11 23 11 01   49.23280  236.03200    20
  143      1.60  2020 11 23 11 01   48.46230  236.69099     5
  162      1.00  2020 11 23 11 01   48.45240  236.67101     5
  163      0.50  2020 11 23 11 01   48.46480  236.68600     5
  165      0.00  2020 11 23 11 01   49.26100  235.19299    60
  166      0.00  2020 11 23 11 01   49.22710  235.20799    60
  167      0.00  2020 11 23 11 01   49.15040  234.09500    60
  169      0.00  2020 11 23 11 01   48.43780  236.46700     5
  174      0.90  2020 11 23 11 01   48.62580  236.57700     4
  176      0.30  2020 11 23 11 01   48.41800  236.68201     5
  177      0.00  2020 11 23 11 01   48.98460  236.17200    20
  179      0.00  2020 11 23 11 01   49.78270  233.94901    70
  181      0.00  2020 11 23 11 01   48.38970  236.47800     5
  182      0.00  2020 11 23 11 01   49.20990  236.04500    23
  184      0.00  2020 11 23 11 01   49.21830  235.19200    23
  188      0.00  2020 11 23 11 01   48.66570  236.58200     4
  189      1.70  2020 11 23 11 01   49.70950  235.08600    30
  190      0.00  2020 11 23 11 01   49.68220  235.00101    30
  192      0.00  2020 11 23 11 01   49.53550  235.18401    30
  194      0.00  2020 11 23 11 01   49.85610  234.88100    30
  197      0.80  2020 11 23 11 01   48.52190  236.58000     5
  199      2.30  2020 11 23 11 01   48.39510  236.69501     5
  200      0.00  2020 11 23 11 01   48.48800  236.67300     5
  204      0.00  2020 11 23 11 01   49.94130  234.80499    35
  205      0.00  2020 11 23 11 01   49.96700  234.78400    35
  206      0.00  2020 11 23 11 01   49.97270  234.76100    35
  207      0.00  2020 11 23 11 01   49.98010  234.75500    35
  208      0.00  2020 11 23 11 01   50.02360  234.72600    35
  210      0.70  2020 11 23 11 01   50.02080  234.75400    35
  211      0.00  2020 11 23 11 01   50.05990  235.01700    35
  212      0.00  2020 11 23 11 01   50.37740  234.04201    35
  213      1.90  2020 11 23 11 01   50.01380  234.75000    35
  215      0.00  2020 11 23 11 01   48.46180  236.59500     5
  216      0.00  2020 11 23 11 01   49.17440  237.15300    80
  217      1.60  2020 11 23 11 01   48.45190  236.70399     5
  218      0.00  2020 11 23 11 01   49.32200  235.65700    21
  227      0.00  2020 11 23 11 01   48.52524  236.61111     5
  234      0.00  2020 11 23 11 01   48.88760  236.62149    45
  235      0.00  2020 11 23 11 01   48.92833  236.53203    45
  238      0.00  2020 11 23 11 01   48.88512  236.64799    45
winddir
    1    305.00  2020 11 23 11 01   48.46990  236.68100     5
    3    284.00  2020 11 23 11 01   48.47760  236.58299     1
    4    325.00  2020 11 23 11 01   48.44080  236.66100     1
    5    322.00  2020 11 23 11 01   48.46600  236.66299     1
    6    259.00  2020 11 23 11 01   48.46160  236.59200     1
    7    231.00  2020 11 23 11 01   48.46550  236.67900     1
    9     94.00  2020 11 23 11 01   48.46510  236.70000     1
   11    215.00  2020 11 23 11 01   48.41690  236.62000     1
   12    281.00  2020 11 23 11 01   48.43460  236.61200     1
   13     33.00  2020 11 23 11 01   48.45330  236.57401     1
   14    346.00  2020 11 23 11 01   48.43590  236.68900     1
   16    360.00  2020 11 23 11 01   48.45190  236.60699     1
   17    198.00  2020 11 23 11 01   48.46630  236.55800     1
   18    315.00  2020 11 23 11 01   48.48650  236.67599     1
   19    336.00  2020 11 23 11 01   48.41820  236.68600     1
   20     48.00  2020 11 23 11 01   48.47880  236.63499     1
   21    227.00  2020 11 23 11 01   48.47440  236.61900     1
   22    360.00  2020 11 23 11 01   48.45340  236.64101     1
   24    290.00  2020 11 23 11 01   48.48490  236.68600     1
   25    157.00  2020 11 23 11 01   48.44510  236.67200     1
   26    273.00  2020 11 23 11 01   48.45620  236.66200     1
   29    313.00  2020 11 23 11 01   48.43290  236.64900     1
   31    266.00  2020 11 23 11 01   48.42050  236.51401     3
   32    305.00  2020 11 23 11 01   48.43560  236.51401     3
   34    360.00  2020 11 23 11 01   48.45290  236.52299     3
   37    313.00  2020 11 23 11 01   48.37100  236.25000     3
   39    205.00  2020 11 23 11 01   48.46550  236.49400     3
   40      3.00  2020 11 23 11 01   48.45150  236.49500     3
   41    307.00  2020 11 23 11 01   48.42810  236.63400     2
   42    304.00  2020 11 23 11 01   48.56210  236.53400     2
   43    335.00  2020 11 23 11 01   48.45220  236.73300     5
   55    258.00  2020 11 23 11 01   48.44880  236.51401     3
   56    282.00  2020 11 23 11 01   48.45720  236.45100     3
   57    230.00  2020 11 23 11 01   48.42180  236.50500     3
   59    167.00  2020 11 23 11 01   48.38740  236.28300     3
   60    266.00  2020 11 23 11 01   48.43820  236.60400     1
   61    285.00  2020 11 23 11 01   48.52730  236.63000     4
   64    194.00  2020 11 23 11 01   48.50140  236.63901     4
   66    223.00  2020 11 23 11 01   48.52340  236.56700     4
   67     34.00  2020 11 23 11 01   48.65290  236.59599     4
   68    117.00  2020 11 23 11 01   48.56970  236.54700     4
   71    159.00  2020 11 23 11 01   48.53760  236.49899    11
   72    268.00  2020 11 23 11 01   48.29838  236.46838     5
   73    290.00  2020 11 23 11 01   48.45370  236.57899     1
   74    329.00  2020 11 23 11 01   48.44560  236.63901     1
   77     76.00  2020 11 23 11 01   48.46690  236.60800     1
   79    293.00  2020 11 23 11 01   48.47130  236.69299     1
   80     94.00  2020 11 23 11 01   48.48210  236.67000     1
   89    265.00  2020 11 23 11 01   49.31120  235.67300    21
   90    304.00  2020 11 23 11 01   48.45710  236.56300     1
   93    281.00  2020 11 23 11 01   48.65380  236.37601    14
   95    104.00  2020 11 23 11 01   49.34850  235.59900    21
   96    197.00  2020 11 23 11 01   49.44590  235.30099    21
   98    313.00  2020 11 23 11 01   48.41610  236.67000     1
   99    138.00  2020 11 23 11 01   48.51100  236.53600    11
  100    320.00  2020 11 23 11 01   48.48110  236.48700    11
  101    173.00  2020 11 23 11 01   48.51010  236.47600    11
  104    360.00  2020 11 23 11 01   48.42810  236.47099     3
  105     73.00  2020 11 23 11 01   48.55650  235.60100     3
  110    173.00  2020 11 23 11 01   49.27380  235.80901    21
  112     90.00  2020 11 23 11 01   48.79430  236.82700    40
  114    360.00  2020 11 23 11 01   48.88560  236.66600    45
  114    360.00  2020 11 23 11 01   48.88560  236.66600    40
  115    360.00  2020 11 23 11 01   48.43210  236.59801     5
  119     59.00  2020 11 23 11 01   48.90720  236.46100    40
  121    121.00  2020 11 23 11 01   48.85540  236.49300    40
  122    134.00  2020 11 23 11 01   48.85030  236.49400    40
  125     13.00  2020 11 23 11 01   48.43350  236.67599     5
  126    188.00  2020 11 23 11 01   48.78590  236.30499    10
  132    241.00  2020 11 23 11 01   48.61540  236.36900    14
  133    153.00  2020 11 23 11 01   48.65230  236.34900    10
  139    161.00  2020 11 23 11 01   49.23280  236.03200    20
  143    315.00  2020 11 23 11 01   48.46230  236.69099     5
  162    290.00  2020 11 23 11 01   48.45240  236.67101     5
  163    324.00  2020 11 23 11 01   48.46480  236.68600     5
  165     57.00  2020 11 23 11 01   49.26100  235.19299    60
  166    360.00  2020 11 23 11 01   49.22710  235.20799    60
  167     36.00  2020 11 23 11 01   49.15040  234.09500    60
  169    104.00  2020 11 23 11 01   48.43780  236.46700     5
  174    127.00  2020 11 23 11 01   48.62580  236.57700     4
  176    300.00  2020 11 23 11 01   48.41800  236.68201     5
  177    279.00  2020 11 23 11 01   48.98460  236.17200    20
  179    105.00  2020 11 23 11 01   49.78270  233.94901    70
  181    267.00  2020 11 23 11 01   48.38970  236.47800     5
  182    150.00  2020 11 23 11 01   49.20990  236.04500    23
  184    180.00  2020 11 23 11 01   49.21830  235.19200    23
  188     48.00  2020 11 23 11 01   48.66570  236.58200     4
  189    172.00  2020 11 23 11 01   49.70950  235.08600    30
  190    249.00  2020 11 23 11 01   49.68220  235.00101    30
  192    165.00  2020 11 23 11 01   49.53550  235.18401    30
  194     86.00  2020 11 23 11 01   49.85610  234.88100    30
  197    260.00  2020 11 23 11 01   48.52190  236.58000     5
  199    276.00  2020 11 23 11 01   48.39510  236.69501     5
  200    196.00  2020 11 23 11 01   48.48800  236.67300     5
  204    159.00  2020 11 23 11 01   49.94130  234.80499    35
  205    104.00  2020 11 23 11 01   49.96700  234.78400    35
  206    136.00  2020 11 23 11 01   49.97270  234.76100    35
  207     96.00  2020 11 23 11 01   49.98010  234.75500    35
  208    135.00  2020 11 23 11 01   50.02360  234.72600    35
  210     97.00  2020 11 23 11 01   50.02080  234.75400    35
  211    238.00  2020 11 23 11 01   50.05990  235.01700    35
  212    117.00  2020 11 23 11 01   50.37740  234.04201    35
  213    107.00  2020 11 23 11 01   50.01380  234.75000    35
  215    200.00  2020 11 23 11 01   48.46180  236.59500     5
  216     36.00  2020 11 23 11 01   49.17440  237.15300    80
  217    316.00  2020 11 23 11 01   48.45190  236.70399     5
  218    229.00  2020 11 23 11 01   49.32200  235.65700    21
  227     48.00  2020 11 23 11 01   48.52524  236.61111     5
  234     46.00  2020 11 23 11 01   48.88760  236.62149    45
  235    105.00  2020 11 23 11 01   48.92833  236.53203    45
  238    264.00  2020 11 23 11 01   48.88512  236.64799    45
solar
    1    169.00  2020 11 23 11 01   48.46990  236.68100     5
    3     89.00  2020 11 23 11 01   48.47760  236.58299     1
    4    340.00  2020 11 23 11 01   48.44080  236.66100     1
    5    174.00  2020 11 23 11 01   48.46600  236.66299     1
    6    162.00  2020 11 23 11 01   48.46160  236.59200     1
    7     77.00  2020 11 23 11 01   48.46550  236.67900     1
    9    327.00  2020 11 23 11 01   48.46510  236.70000     1
   11    328.00  2020 11 23 11 01   48.41690  236.62000     1
   12    334.00  2020 11 23 11 01   48.43460  236.61200     1
   13    352.00  2020 11 23 11 01   48.45330  236.57401     1
   14    198.00  2020 11 23 11 01   48.43590  236.68900     1
   16    397.00  2020 11 23 11 01   48.45190  236.60699     1
   17    379.00  2020 11 23 11 01   48.46630  236.55800     1
   18    324.00  2020 11 23 11 01   48.48650  236.67599     1
   19    317.00  2020 11 23 11 01   48.41820  236.68600     1
   20    223.00  2020 11 23 11 01   48.47880  236.63499     1
   21    406.00  2020 11 23 11 01   48.47440  236.61900     1
   22    317.00  2020 11 23 11 01   48.45340  236.64101     1
   24    290.00  2020 11 23 11 01   48.48490  236.68600     1
   25    330.00  2020 11 23 11 01   48.44510  236.67200     1
   26    285.00  2020 11 23 11 01   48.45620  236.66200     1
   29    374.00  2020 11 23 11 01   48.43290  236.64900     1
   31    250.00  2020 11 23 11 01   48.42050  236.51401     3
   32    275.00  2020 11 23 11 01   48.43560  236.51401     3
   34    373.00  2020 11 23 11 01   48.45290  236.52299     3
   37    122.00  2020 11 23 11 01   48.37100  236.25000     3
   39     78.00  2020 11 23 11 01   48.46550  236.49400     3
   40    336.00  2020 11 23 11 01   48.45150  236.49500     3
   42    165.00  2020 11 23 11 01   48.56210  236.53400     2
   55    107.00  2020 11 23 11 01   48.44880  236.51401     3
   56    333.00  2020 11 23 11 01   48.45720  236.45100     3
   57    306.00  2020 11 23 11 01   48.42180  236.50500     3
   59    110.00  2020 11 23 11 01   48.38740  236.28300     3
   60    363.00  2020 11 23 11 01   48.43820  236.60400     1
   61    333.00  2020 11 23 11 01   48.52730  236.63000     4
   64    345.00  2020 11 23 11 01   48.50140  236.63901     4
   66    318.00  2020 11 23 11 01   48.52340  236.56700     4
   67    348.00  2020 11 23 11 01   48.65290  236.59599     4
   68    369.00  2020 11 23 11 01   48.56970  236.54700     4
   71    315.00  2020 11 23 11 01   48.53760  236.49899    11
   72    137.00  2020 11 23 11 01   48.29838  236.46838     5
   73    330.00  2020 11 23 11 01   48.45370  236.57899     1
   74    317.00  2020 11 23 11 01   48.44560  236.63901     1
   77    290.00  2020 11 23 11 01   48.46690  236.60800     1
   79    243.00  2020 11 23 11 01   48.47130  236.69299     1
   80    229.00  2020 11 23 11 01   48.48210  236.67000     1
   89    308.00  2020 11 23 11 01   49.31120  235.67300    21
   90    281.00  2020 11 23 11 01   48.45710  236.56300     1
   93    341.00  2020 11 23 11 01   48.65380  236.37601    14
   95    345.00  2020 11 23 11 01   49.34850  235.59900    21
   96    314.00  2020 11 23 11 01   49.44590  235.30099    21
   98    338.00  2020 11 23 11 01   48.41610  236.67000     1
   99    325.00  2020 11 23 11 01   48.51100  236.53600    11
  100     44.00  2020 11 23 11 01   48.48110  236.48700    11
  101    105.00  2020 11 23 11 01   48.51010  236.47600    11
  104    285.00  2020 11 23 11 01   48.42810  236.47099     3
  105    229.00  2020 11 23 11 01   48.55650  235.60100     3
  107    287.00  2020 11 23 11 01   48.46610  236.50400     3
  110    336.00  2020 11 23 11 01   49.27380  235.80901    21
  112     26.00  2020 11 23 11 01   48.79430  236.82700    40
  114     26.00  2020 11 23 11 01   48.88560  236.66600    45
  114     26.00  2020 11 23 11 01   48.88560  236.66600    40
  115    362.00  2020 11 23 11 01   48.43210  236.59801     5
  119    136.00  2020 11 23 11 01   48.90720  236.46100    40
  121     54.00  2020 11 23 11 01   48.85540  236.49300    40
  122     95.00  2020 11 23 11 01   48.85030  236.49400    40
  125    296.00  2020 11 23 11 01   48.43350  236.67599     5
  126    233.00  2020 11 23 11 01   48.78590  236.30499    10
  132     21.00  2020 11 23 11 01   48.61540  236.36900    14
  133    281.00  2020 11 23 11 01   48.65230  236.34900    10
  134    362.00  2020 11 23 11 01   48.46480  236.62601     5
  139     88.00  2020 11 23 11 01   49.23280  236.03200    20
  143    301.00  2020 11 23 11 01   48.46230  236.69099     5
  162    415.00  2020 11 23 11 01   48.45240  236.67101     5
  163    130.00  2020 11 23 11 01   48.46480  236.68600     5
  165     92.00  2020 11 23 11 01   49.26100  235.19299    60
  166     79.00  2020 11 23 11 01   49.22710  235.20799    60
  167    226.00  2020 11 23 11 01   49.15040  234.09500    60
  169    298.00  2020 11 23 11 01   48.43780  236.46700     5
  174    163.00  2020 11 23 11 01   48.62580  236.57700     4
  176    312.00  2020 11 23 11 01   48.41800  236.68201     5
  177     90.00  2020 11 23 11 01   48.98460  236.17200    20
  179    134.00  2020 11 23 11 01   49.78270  233.94901    70
  181     54.00  2020 11 23 11 01   48.38970  236.47800     5
  182     95.00  2020 11 23 11 01   49.20990  236.04500    23
  184    123.00  2020 11 23 11 01   49.21830  235.19200    23
  188    158.00  2020 11 23 11 01   48.66570  236.58200     4
  189    332.00  2020 11 23 11 01   49.70950  235.08600    30
  190    267.00  2020 11 23 11 01   49.68220  235.00101    30
  192    276.00  2020 11 23 11 01   49.53550  235.18401    30
  194    179.00  2020 11 23 11 01   49.85610  234.88100    30
  197    195.00  2020 11 23 11 01   48.52190  236.58000     5
  199    159.00  2020 11 23 11 01   48.39510  236.69501     5
  200    366.00  2020 11 23 11 01   48.48800  236.67300     5
  204    169.00  2020 11 23 11 01   49.94130  234.80499    35
  205    112.00  2020 11 23 11 01   49.96700  234.78400    35
  206    153.00  2020 11 23 11 01   49.97270  234.76100    35
  207    126.00  2020 11 23 11 01   49.98010  234.75500    35
  208    104.00  2020 11 23 11 01   50.02360  234.72600    35
  210     94.00  2020 11 23 11 01   50.02080  234.75400    35
  211     36.00  2020 11 23 11 01   50.05990  235.01700    35
  212    134.00  2020 11 23 11 01   50.37740  234.04201    35
  215    350.00  2020 11 23 11 01   48.46180  236.59500     5
  216     44.00  2020 11 23 11 01   49.17440  237.15300    80
  217    404.00  2020 11 23 11 01   48.45190  236.70399     5
  218    285.00  2020 11 23 11 01   49.32200  235.65700    21
  227    262.00  2020 11 23 11 01   48.52524  236.61111     5
  234     27.00  2020 11 23 11 01   48.88760  236.62149    45
  235    104.00  2020 11 23 11 01   48.92833  236.53203    45
uv
    3      0.00  2020 11 23 11 01   48.47760  236.58299     1
    4      0.00  2020 11 23 11 01   48.44080  236.66100     1
    5      0.50  2020 11 23 11 01   48.46600  236.66299     1
    6      0.70  2020 11 23 11 01   48.46160  236.59200     1
    7      0.80  2020 11 23 11 01   48.46550  236.67900     1
    9      0.60  2020 11 23 11 01   48.46510  236.70000     1
   11      1.20  2020 11 23 11 01   48.41690  236.62000     1
   12      4.90  2020 11 23 11 01   48.43460  236.61200     1
   14      0.60  2020 11 23 11 01   48.43590  236.68900     1
   16      0.80  2020 11 23 11 01   48.45190  236.60699     1
   17      0.00  2020 11 23 11 01   48.46630  236.55800     1
   18      0.00  2020 11 23 11 01   48.48650  236.67599     1
   19      0.80  2020 11 23 11 01   48.41820  236.68600     1
   20      0.00  2020 11 23 11 01   48.47880  236.63499     1
   21      1.30  2020 11 23 11 01   48.47440  236.61900     1
   22      0.80  2020 11 23 11 01   48.45340  236.64101     1
   24      0.00  2020 11 23 11 01   48.48490  236.68600     1
   25      0.80  2020 11 23 11 01   48.44510  236.67200     1
   26      0.80  2020 11 23 11 01   48.45620  236.66200     1
   29      3.20  2020 11 23 11 01   48.43290  236.64900     1
   31      1.90  2020 11 23 11 01   48.42050  236.51401     3
   32      1.70  2020 11 23 11 01   48.43560  236.51401     3
   34      4.00  2020 11 23 11 01   48.45290  236.52299     3
   37      0.20  2020 11 23 11 01   48.37100  236.25000     3
   39      0.00  2020 11 23 11 01   48.46550  236.49400     3
   40      0.00  2020 11 23 11 01   48.45150  236.49500     3
   42      1.90  2020 11 23 11 01   48.56210  236.53400     2
   55      0.70  2020 11 23 11 01   48.44880  236.51401     3
   56      1.00  2020 11 23 11 01   48.45720  236.45100     3
   59      0.00  2020 11 23 11 01   48.38740  236.28300     3
   60      0.80  2020 11 23 11 01   48.43820  236.60400     1
   61      0.00  2020 11 23 11 01   48.52730  236.63000     4
   64      0.00  2020 11 23 11 01   48.50140  236.63901     4
   66      0.70  2020 11 23 11 01   48.52340  236.56700     4
   67      0.00  2020 11 23 11 01   48.65290  236.59599     4
   68      1.00  2020 11 23 11 01   48.56970  236.54700     4
   71      0.80  2020 11 23 11 01   48.53760  236.49899    11
   72      0.00  2020 11 23 11 01   48.29838  236.46838     5
   73      0.50  2020 11 23 11 01   48.45370  236.57899     1
   74      1.00  2020 11 23 11 01   48.44560  236.63901     1
   77      0.60  2020 11 23 11 01   48.46690  236.60800     1
   79      1.00  2020 11 23 11 01   48.47130  236.69299     1
   80      0.70  2020 11 23 11 01   48.48210  236.67000     1
   89      1.00  2020 11 23 11 01   49.31120  235.67300    21
   90      0.60  2020 11 23 11 01   48.45710  236.56300     1
   93      0.90  2020 11 23 11 01   48.65380  236.37601    14
   95      1.00  2020 11 23 11 01   49.34850  235.59900    21
   96      1.10  2020 11 23 11 01   49.44590  235.30099    21
   98      1.20  2020 11 23 11 01   48.41610  236.67000     1
   99      0.60  2020 11 23 11 01   48.51100  236.53600    11
  101      0.70  2020 11 23 11 01   48.51010  236.47600    11
  104      0.50  2020 11 23 11 01   48.42810  236.47099     3
  105      0.00  2020 11 23 11 01   48.55650  235.60100     3
  110      1.00  2020 11 23 11 01   49.27380  235.80901    21
  112      0.00  2020 11 23 11 01   48.79430  236.82700    40
  114      0.00  2020 11 23 11 01   48.88560  236.66600    45
  114      0.00  2020 11 23 11 01   48.88560  236.66600    40
  115      0.80  2020 11 23 11 01   48.43210  236.59801     5
  119      0.70  2020 11 23 11 01   48.90720  236.46100    40
  121      0.00  2020 11 23 11 01   48.85540  236.49300    40
  122      0.50  2020 11 23 11 01   48.85030  236.49400    40
  125      1.00  2020 11 23 11 01   48.43350  236.67599     5
  126      0.70  2020 11 23 11 01   48.78590  236.30499    10
  132      0.00  2020 11 23 11 01   48.61540  236.36900    14
  134      1.20  2020 11 23 11 01   48.46480  236.62601     5
  139      0.50  2020 11 23 11 01   49.23280  236.03200    20
  143      1.30  2020 11 23 11 01   48.46230  236.69099     5
  162      1.00  2020 11 23 11 01   48.45240  236.67101     5
  163      9.80  2020 11 23 11 01   48.46480  236.68600     5
  165      0.60  2020 11 23 11 01   49.26100  235.19299    60
  166      0.50  2020 11 23 11 01   49.22710  235.20799    60
  167      0.70  2020 11 23 11 01   49.15040  234.09500    60
  169      1.30  2020 11 23 11 01   48.43780  236.46700     5
  174      0.70  2020 11 23 11 01   48.62580  236.57700     4
  176      1.00  2020 11 23 11 01   48.41800  236.68201     5
  177      0.00  2020 11 23 11 01   48.98460  236.17200    20
  179      0.70  2020 11 23 11 01   49.78270  233.94901    70
  181      0.10  2020 11 23 11 01   48.38970  236.47800     5
  182      0.00  2020 11 23 11 01   49.20990  236.04500    23
  184      0.80  2020 11 23 11 01   49.21830  235.19200    23
  188      0.70  2020 11 23 11 01   48.66570  236.58200     4
  189      1.10  2020 11 23 11 01   49.70950  235.08600    30
  190      1.00  2020 11 23 11 01   49.68220  235.00101    30
  192      1.20  2020 11 23 11 01   49.53550  235.18401    30
  194      0.00  2020 11 23 11 01   49.85610  234.88100    30
  197      1.10  2020 11 23 11 01   48.52190  236.58000     5
  199      0.90  2020 11 23 11 01   48.39510  236.69501     5
  200      0.00  2020 11 23 11 01   48.48800  236.67300     5
  204      0.90  2020 11 23 11 01   49.94130  234.80499    35
  205      0.70  2020 11 23 11 01   49.96700  234.78400    35
  206      1.00  2020 11 23 11 01   49.97270  234.76100    35
  207      0.80  2020 11 23 11 01   49.98010  234.75500    35
  208      0.80  2020 11 23 11 01   50.02360  234.72600    35
  210      0.60  2020 11 23 11 01   50.02080  234.75400    35
  211      0.00  2020 11 23 11 01   50.05990  235.01700    35
  212      0.00  2020 11 23 11 01   50.37740  234.04201    35
  215      0.90  2020 11 23 11 01   48.46180  236.59500     5
  217      1.10  2020 11 23 11 01   48.45190  236.70399     5
  218      0.60  2020 11 23 11 01   49.32200  235.65700    21
  227      0.00  2020 11 23 11 01   48.52524  236.61111     5
  234      0.00  2020 11 23 11 01   48.88760  236.62149    45
  235      0.00  2020 11 23 11 01   48.92833  236.53203    45
raintotal
    1      6.30  2020 11 23 11 01   48.46990  236.68100     5
    3      5.80  2020 11 23 11 01   48.47760  236.58299     1
    4      6.30  2020 11 23 11 01   48.44080  236.66100     1
    5      5.60  2020 11 23 11 01   48.46600  236.66299     1
    6      4.80  2020 11 23 11 01   48.46160  236.59200     1
    7      0.00  2020 11 23 11 01   48.46550  236.67900     1
    9      3.60  2020 11 23 11 01   48.46510  236.70000     1
   11      3.30  2020 11 23 11 01   48.41690  236.62000     1
   12      4.30  2020 11 23 11 01   48.43460  236.61200     1
   13      6.10  2020 11 23 11 01   48.45330  236.57401     1
   14      0.00  2020 11 23 11 01   48.43590  236.68900     1
   15      3.30  2020 11 23 11 01   48.41530  236.65199     1
   16      0.00  2020 11 23 11 01   48.45190  236.60699     1
   17      7.60  2020 11 23 11 01   48.46630  236.55800     1
   18      7.40  2020 11 23 11 01   48.48650  236.67599     1
   19      4.10  2020 11 23 11 01   48.41820  236.68600     1
   20      5.60  2020 11 23 11 01   48.47880  236.63499     1
   21      7.10  2020 11 23 11 01   48.47440  236.61900     1
   22      4.60  2020 11 23 11 01   48.45340  236.64101     1
   24      6.10  2020 11 23 11 01   48.48490  236.68600     1
   25      0.00  2020 11 23 11 01   48.44510  236.67200     1
   26      3.60  2020 11 23 11 01   48.45620  236.66200     1
   29      0.20  2020 11 23 11 01   48.43290  236.64900     1
   31      0.00  2020 11 23 11 01   48.42050  236.51401     3
   32      6.10  2020 11 23 11 01   48.43560  236.51401     3
   33      0.00  2020 11 23 11 01   48.46830  236.64101     1
   34      6.60  2020 11 23 11 01   48.45290  236.52299     3
   35      0.00  2020 11 23 11 01   48.44280  236.50400     3
   37      5.60  2020 11 23 11 01   48.37100  236.25000     3
   39      0.00  2020 11 23 11 01   48.46550  236.49400     3
   40      6.10  2020 11 23 11 01   48.45150  236.49500     3
   42      6.60  2020 11 23 11 01   48.56210  236.53400     2
   43      3.40  2020 11 23 11 01   48.45220  236.73300     5
   55      5.30  2020 11 23 11 01   48.44880  236.51401     3
   56      7.40  2020 11 23 11 01   48.45720  236.45100     3
   57      0.00  2020 11 23 11 01   48.42180  236.50500     3
   59      6.10  2020 11 23 11 01   48.38740  236.28300     3
   60      5.60  2020 11 23 11 01   48.43820  236.60400     1
   61      6.30  2020 11 23 11 01   48.52730  236.63000     4
   62      0.00  2020 11 23 11 01   48.68040  236.54300     4
   64      5.80  2020 11 23 11 01   48.50140  236.63901     4
   66      4.10  2020 11 23 11 01   48.52340  236.56700     4
   67      3.80  2020 11 23 11 01   48.65290  236.59599     4
   68      6.90  2020 11 23 11 01   48.56970  236.54700     4
   71      5.80  2020 11 23 11 01   48.53760  236.49899    11
   72      2.80  2020 11 23 11 01   48.29838  236.46838     5
   73      6.10  2020 11 23 11 01   48.45370  236.57899     1
   74      4.40  2020 11 23 11 01   48.44560  236.63901     1
   77      7.10  2020 11 23 11 01   48.46690  236.60800     1
   79      6.90  2020 11 23 11 01   48.47130  236.69299     1
   80      6.30  2020 11 23 11 01   48.48210  236.67000     1
   82      0.00  2020 11 23 11 01   48.46080  236.60699     1
   89      0.80  2020 11 23 11 01   49.31120  235.67300    21
   90      6.10  2020 11 23 11 01   48.45710  236.56300     1
   93      3.80  2020 11 23 11 01   48.65380  236.37601    14
   95      0.00  2020 11 23 11 01   49.34850  235.59900    21
   96      1.30  2020 11 23 11 01   49.44590  235.30099    21
   98      3.60  2020 11 23 11 01   48.41610  236.67000     1
   99      4.30  2020 11 23 11 01   48.51100  236.53600    11
  100      0.00  2020 11 23 11 01   48.48110  236.48700    11
  101      0.80  2020 11 23 11 01   48.51010  236.47600    11
  104      6.90  2020 11 23 11 01   48.42810  236.47099     3
  105      4.80  2020 11 23 11 01   48.55650  235.60100     3
  107      6.30  2020 11 23 11 01   48.46610  236.50400     3
  110      0.00  2020 11 23 11 01   49.27380  235.80901    21
  111      0.00  2020 11 23 11 01   49.31490  235.68800    21
  112      0.00  2020 11 23 11 01   48.79430  236.82700    40
  114      2.00  2020 11 23 11 01   48.88560  236.66600    40
  114      2.00  2020 11 23 11 01   48.88560  236.66600    45
  115      6.10  2020 11 23 11 01   48.43210  236.59801     5
  119      2.00  2020 11 23 11 01   48.90720  236.46100    40
  120      0.00  2020 11 23 11 01   48.77670  236.55299    40
  121      4.80  2020 11 23 11 01   48.85540  236.49300    40
  122      0.00  2020 11 23 11 01   48.85030  236.49400    40
  125      5.30  2020 11 23 11 01   48.43350  236.67599     5
  126      3.60  2020 11 23 11 01   48.78590  236.30499    10
  132      5.10  2020 11 23 11 01   48.61540  236.36900    14
  133      6.10  2020 11 23 11 01   48.65230  236.34900    10
  134      0.00  2020 11 23 11 01   48.46480  236.62601     5
  139      1.00  2020 11 23 11 01   49.23280  236.03200    20
  141      0.20  2020 11 23 11 01   49.17830  235.98500    20
  143      6.10  2020 11 23 11 01   48.46230  236.69099     5
  160      0.00  2020 11 23 11 01   48.65680  236.35699    14
  162      0.00  2020 11 23 11 01   48.45240  236.67101     5
  163      0.20  2020 11 23 11 01   48.46480  236.68600     5
  165      2.80  2020 11 23 11 01   49.26100  235.19299    60
  166      3.00  2020 11 23 11 01   49.22710  235.20799    60
  167      4.10  2020 11 23 11 01   49.15040  234.09500    60
  169      0.00  2020 11 23 11 01   48.43780  236.46700     5
  174      0.00  2020 11 23 11 01   48.62580  236.57700     4
  176      3.30  2020 11 23 11 01   48.41800  236.68201     5
  177      1.00  2020 11 23 11 01   48.98460  236.17200    20
  178      0.00  2020 11 23 11 01   64.06090  225.57001    81
  179      1.80  2020 11 23 11 01   49.78270  233.94901    70
  181      0.00  2020 11 23 11 01   48.38970  236.47800     5
  182      0.50  2020 11 23 11 01   49.20990  236.04500    23
  188      4.60  2020 11 23 11 01   48.66570  236.58200     4
  189      0.50  2020 11 23 11 01   49.70950  235.08600    30
  190      0.50  2020 11 23 11 01   49.68220  235.00101    30
  191      0.00  2020 11 23 11 01   49.62120  234.96700    30
  192      0.50  2020 11 23 11 01   49.53550  235.18401    30
  194      0.20  2020 11 23 11 01   49.85610  234.88100    30
  197      3.60  2020 11 23 11 01   48.52190  236.58000     5
  199      2.30  2020 11 23 11 01   48.39510  236.69501     5
  200      3.00  2020 11 23 11 01   48.48800  236.67300     5
  204      0.00  2020 11 23 11 01   49.94130  234.80499    35
  205      0.00  2020 11 23 11 01   49.96700  234.78400    35
  206      0.20  2020 11 23 11 01   49.97270  234.76100    35
  207      0.20  2020 11 23 11 01   49.98010  234.75500    35
  208      0.20  2020 11 23 11 01   50.02360  234.72600    35
  210      0.00  2020 11 23 11 01   50.02080  234.75400    35
  211      0.80  2020 11 23 11 01   50.05990  235.01700    35
  212      0.00  2020 11 23 11 01   50.37740  234.04201    35
  213      0.20  2020 11 23 11 01   50.01380  234.75000    35
  215      0.00  2020 11 23 11 01   48.46180  236.59500     5
  216      7.10  2020 11 23 11 01   49.17440  237.15300    80
  217      4.10  2020 11 23 11 01   48.45190  236.70399     5
  218      0.20  2020 11 23 11 01   49.32200  235.65700    21
  227      4.60  2020 11 23 11 01   48.52524  236.61111     5
  234      3.00  2020 11 23 11 01   48.88760  236.62149    45
  235      2.60  2020 11 23 11 01   48.92833  236.53203    45
  238      3.30  2020 11 23 11 01   48.88512  236.64799    45
Error 1055 : Expression #1 of SELECT list is not in GROUP BY clause and contains nonaggregated column 'meteo.sdata.timekey' which is not functionally dependent on columns in GROUP BY clause; this is incompatible with sql_mode=only_full_group_by
NumberStation Name